createdAt,value
2017-06-18T00:00:22.587Z,23.59
2017-06-18T00:02:38.331Z,23.54
2017-06-18T00:05:02.554Z,23.37
2017-06-18T00:07:26.766Z,23.26
2017-06-18T00:09:42.537Z,23.23
2017-06-18T00:11:58.327Z,23.17
2017-06-18T00:14:22.507Z,23.29
2017-06-18T00:16:46.742Z,23.07
2017-06-18T00:19:10.966Z,23.23
2017-06-18T00:21:35.163Z,22.95
2017-06-18T00:23:59.362Z,22.68
2017-06-18T00:26:23.559Z,23.02
2017-06-18T00:28:47.716Z,22.99
2017-06-18T00:31:11.899Z,22.99
2017-06-18T00:33:36.101Z,22.84
2017-06-18T00:36:00.295Z,22.81
2017-06-18T00:38:24.464Z,22.68
2017-06-18T00:40:48.622Z,22.68
2017-06-18T00:43:12.778Z,22.68
2017-06-18T00:45:36.919Z,22.53
2017-06-18T00:47:29.862Z,22.47
2017-06-18T00:49:45.637Z,22.36
2017-06-18T00:52:02.342Z,22.61
2017-06-18T00:54:03.733Z,22.63
2017-06-18T00:56:19.474Z,22.62
2017-06-18T00:58:35.210Z,22.14
2017-06-18T01:00:59.342Z,22.38
2017-06-18T01:03:23.506Z,22.56
2017-06-18T01:05:39.212Z,22.58
2017-06-18T01:07:46.483Z,22.41
2017-06-18T01:09:53.760Z,22.21
2017-06-18T01:12:17.893Z,22.16
2017-06-18T01:14:41.988Z,22.12
2017-06-18T01:17:06.132Z,22.18
2017-06-18T01:19:30.278Z,22.08
2017-06-18T01:21:45.917Z,22.22
2017-06-18T01:24:10.051Z,22.18
2017-06-18T01:26:25.709Z,22.16
2017-06-18T01:28:49.828Z,22.37
2017-06-18T01:31:13.967Z,22.38
2017-06-18T01:33:38.083Z,22.41
2017-06-18T01:36:02.201Z,22.49
2017-06-18T01:38:26.333Z,22.41
2017-06-18T01:40:50.489Z,22.21
2017-06-18T01:43:14.641Z,21.99
2017-06-18T01:45:30.344Z,22.01
2017-06-18T01:47:54.494Z,22.19
2017-06-18T01:50:04.432Z,22.21
2017-06-18T01:52:28.587Z,21.88
2017-06-18T01:54:39.133Z,22.06
2017-06-18T01:56:54.963Z,21.88
2017-06-18T01:59:19.071Z,22.04
2017-06-18T02:01:43.181Z,22.08
2017-06-18T02:04:07.255Z,22
2017-06-18T02:06:17.197Z,22.04
2017-06-18T02:08:41.346Z,21.88
2017-06-18T02:10:57.019Z,21.91
2017-06-18T02:13:04.230Z,21.8
2017-06-18T02:15:28.344Z,21.97
2017-06-18T02:17:52.461Z,22.1
2017-06-18T02:20:08.110Z,21.7
2017-06-18T02:22:32.206Z,21.96
2017-06-18T02:24:56.289Z,22.06
2017-06-18T02:27:20.373Z,22.21
2017-06-18T02:29:36.025Z,22.23
2017-06-18T02:32:00.096Z,22.16
2017-06-18T02:34:24.173Z,22.4
2017-06-18T02:36:48.237Z,22.51
2017-06-18T02:39:12.314Z,22.08
2017-06-18T02:41:36.393Z,22.19
2017-06-18T02:43:52.031Z,22.19
2017-06-18T02:46:16.123Z,22.14
2017-06-18T02:48:40.239Z,22.25
2017-06-18T02:51:04.319Z,22.18
2017-06-18T02:53:28.435Z,22.36
2017-06-18T02:55:52.535Z,22.44
2017-06-18T02:58:08.218Z,22.53
2017-06-18T03:00:32.377Z,22.46
2017-06-18T03:02:56.491Z,22.41
2017-06-18T03:05:20.610Z,22.58
2017-06-18T03:07:44.767Z,22.52
2017-06-18T03:09:46.157Z,22.65
2017-06-18T03:12:10.309Z,22.43
2017-06-18T03:14:34.509Z,22.53
2017-06-18T03:16:58.635Z,22.53
2017-06-18T03:19:22.746Z,22.44
2017-06-18T03:21:38.375Z,22.68
2017-06-18T03:23:54.071Z,22.53
2017-06-18T03:26:18.197Z,22.55
2017-06-18T03:28:42.320Z,22.44
2017-06-18T03:31:06.455Z,22.43
2017-06-18T03:33:22.138Z,22.33
2017-06-18T03:35:46.234Z,22.06
2017-06-18T03:38:10.337Z,22.1
2017-06-18T03:40:34.451Z,22.21
2017-06-18T03:42:50.136Z,22.22
2017-06-18T03:45:14.237Z,22.15
2017-06-18T03:47:29.903Z,22.07
2017-06-18T03:49:53.996Z,22.07
2017-06-18T03:52:09.651Z,22.06
2017-06-18T03:54:33.721Z,22.3
2017-06-18T03:56:44.425Z,22.19
2017-06-18T03:59:08.790Z,22.18
2017-06-18T04:01:18.683Z,22.26
2017-06-18T04:03:42.787Z,21.99
2017-06-18T04:06:06.890Z,21.92
2017-06-18T04:08:30.984Z,21.99
2017-06-18T04:10:46.647Z,22.01
2017-06-18T04:13:10.753Z,21.94
2017-06-18T04:15:26.427Z,21.78
2017-06-18T04:17:42.092Z,22.03
2017-06-18T04:20:06.171Z,21.96
2017-06-18T04:22:30.243Z,21.88
2017-06-18T04:24:45.893Z,21.99
2017-06-18T04:27:09.987Z,21.83
2017-06-18T04:29:34.068Z,21.74
2017-06-18T04:31:58.174Z,22
2017-06-18T04:34:22.263Z,22
2017-06-18T04:36:23.656Z,22.22
2017-06-18T04:38:39.345Z,22.25
2017-06-18T04:41:03.458Z,22.19
2017-06-18T04:43:27.552Z,22.3
2017-06-18T04:45:51.673Z,22.25
2017-06-18T04:48:15.769Z,22.25
2017-06-18T04:50:39.851Z,22.28
2017-06-18T04:53:03.898Z,22.4
2017-06-18T04:55:28.009Z,22.38
2017-06-18T04:57:52.147Z,22.4
2017-06-18T05:00:16.239Z,22.43
2017-06-18T05:02:40.320Z,22.52
2017-06-18T05:05:04.426Z,22.21
2017-06-18T05:07:28.538Z,22.38
2017-06-18T05:09:52.663Z,22.65
2017-06-18T05:12:16.809Z,22.73
2017-06-18T05:14:40.954Z,22.8
2017-06-18T05:17:05.091Z,22.59
2017-06-18T05:19:29.200Z,22.47
2017-06-18T05:21:53.311Z,22.53
2017-06-18T05:24:00.570Z,22.53
2017-06-18T05:26:24.692Z,22.23
2017-06-18T05:28:48.753Z,22.31
2017-06-18T05:31:12.891Z,22.01
2017-06-18T05:33:36.972Z,22.28
2017-06-18T05:36:01.047Z,22.1
2017-06-18T05:38:25.141Z,21.85
2017-06-18T05:40:40.815Z,22.18
2017-06-18T05:43:04.912Z,22.18
2017-06-18T05:45:29.004Z,22.1
2017-06-18T05:47:53.151Z,22.22
2017-06-18T05:50:17.258Z,22.51
2017-06-18T05:52:41.402Z,22.61
2017-06-18T05:54:51.344Z,22.93
2017-06-18T05:57:15.540Z,23.13
2017-06-18T05:59:39.703Z,22.88
2017-06-18T06:02:03.866Z,22.67
2017-06-18T06:04:28.021Z,23.02
2017-06-18T06:06:52.178Z,22.8
2017-06-18T06:09:16.340Z,22.92
2017-06-18T06:11:32.074Z,22.12
2017-06-18T06:13:39.359Z,22.88
2017-06-18T06:15:55.093Z,22.93
2017-06-18T06:18:19.273Z,22.93
2017-06-18T06:20:43.446Z,23.32
2017-06-18T06:23:07.642Z,23.1
2017-06-18T06:25:31.865Z,23.52
2017-06-18T06:27:47.638Z,23.45
2017-06-18T06:30:11.902Z,23.66
2017-06-18T06:32:36.136Z,23.76
2017-06-18T06:35:00.414Z,24.97
2017-06-18T06:37:24.735Z,26.44
2017-06-18T06:39:32.187Z,26.85
2017-06-18T06:41:56.627Z,27.6
2017-06-18T06:44:12.659Z,28.28
2017-06-18T06:46:37.200Z,27.45
2017-06-18T06:49:01.808Z,27.98
2017-06-18T06:51:26.485Z,29.06
2017-06-18T06:53:28.139Z,29.64
2017-06-18T06:55:52.967Z,29.58
2017-06-18T06:58:17.835Z,29.83
2017-06-18T07:00:42.736Z,31.14
2017-06-18T07:02:59.216Z,31.29
2017-06-18T07:05:07.303Z,31.93
2017-06-18T07:07:06.911Z,32.59
2017-06-18T07:09:23.548Z,32.45
2017-06-18T07:11:48.753Z,34.51
2017-06-18T07:14:13.983Z,34.63
2017-06-18T07:16:30.780Z,35.41
2017-06-18T07:18:41.083Z,36.25
2017-06-18T07:21:06.478Z,35.97
2017-06-18T07:23:08.640Z,34.82
2017-06-18T07:25:34.012Z,32.98
2017-06-18T07:27:59.413Z,34.18
2017-06-18T07:30:24.790Z,32.02
2017-06-18T07:32:41.919Z,31.85
2017-06-18T07:35:07.294Z,34.22
2017-06-18T07:37:32.657Z,33.53
2017-06-18T07:39:58.024Z,33.67
2017-06-18T07:42:23.385Z,34.25
2017-06-18T07:44:25.109Z,32.97
2017-06-18T07:46:50.596Z,33.2
2017-06-18T07:49:07.528Z,32.9
2017-06-18T07:51:24.483Z,32.85
2017-06-18T07:53:41.418Z,32.34
2017-06-18T07:55:58.322Z,33.36
2017-06-18T07:58:23.798Z,33.17
2017-06-18T08:00:23.719Z,32.57
2017-06-18T08:02:49.202Z,30.86
2017-06-18T08:05:14.698Z,32.26
2017-06-18T08:07:16.930Z,33.05
2017-06-18T08:09:42.503Z,32.75
2017-06-18T08:11:59.569Z,33.85
2017-06-18T08:14:25.113Z,34.11
2017-06-18T08:16:50.664Z,33.82
2017-06-18T08:19:07.708Z,32.82
2017-06-18T08:21:33.241Z,34.21
2017-06-18T08:23:58.682Z,34.24
2017-06-18T08:26:07.159Z,31.78
2017-06-18T08:28:32.646Z,34.16
2017-06-18T08:30:58.141Z,33.36
2017-06-18T08:33:23.608Z,32.78
2017-06-18T08:35:49.111Z,33.87
2017-06-18T08:38:14.603Z,33.97
2017-06-18T08:40:40.077Z,31.73
2017-06-18T08:42:56.944Z,33.7
2017-06-18T08:45:13.838Z,35.26
2017-06-18T08:47:22.270Z,35.16
2017-06-18T08:49:47.770Z,34.6
2017-06-18T08:52:13.254Z,32.82
2017-06-18T08:54:23.633Z,33.66
2017-06-18T08:56:33.974Z,34.26
2017-06-18T08:58:59.518Z,36.5
2017-06-18T09:01:25.004Z,33.97
2017-06-18T09:03:50.499Z,35.5
2017-06-18T09:06:00.848Z,35.9
2017-06-18T09:08:26.406Z,35.53
2017-06-18T09:10:43.413Z,34.97
2017-06-18T09:13:08.941Z,35.88
2017-06-18T09:15:34.499Z,35.79
2017-06-18T09:18:00.020Z,34.02
2017-06-18T09:20:01.747Z,32.42
2017-06-18T09:22:27.231Z,31.51
2017-06-18T09:24:52.581Z,34.62
2017-06-18T09:27:09.442Z,35.49
2017-06-18T09:29:19.768Z,34.58
2017-06-18T09:31:36.767Z,34.5
2017-06-18T09:34:02.186Z,32.97
2017-06-18T09:36:19.120Z,33.4
2017-06-18T09:38:44.574Z,33
2017-06-18T09:41:09.990Z,34.62
2017-06-18T09:43:35.412Z,33.85
2017-06-18T09:45:52.338Z,34.25
2017-06-18T09:48:09.191Z,32.98
2017-06-18T09:50:34.525Z,31.37
2017-06-18T09:52:59.835Z,32.3
2017-06-18T09:54:44.293Z,32.46
2017-06-18T09:57:09.600Z,32.76
2017-06-18T09:59:34.788Z,32.11
2017-06-18T10:01:59.999Z,31.57
2017-06-18T10:04:25.165Z,31.52
2017-06-18T10:06:50.334Z,31.28
2017-06-18T10:09:07.041Z,31.22
2017-06-18T10:11:32.199Z,29.87
2017-06-18T10:13:48.843Z,30.44
2017-06-18T10:16:05.443Z,29.62
2017-06-18T10:18:30.544Z,30.8
2017-06-18T10:20:55.632Z,31.82
2017-06-18T10:23:20.727Z,31.07
2017-06-18T10:25:45.801Z,28.94
2017-06-18T10:28:02.355Z,30.18
2017-06-18T10:30:27.380Z,29.58
2017-06-18T10:32:52.387Z,30.05
2017-06-18T10:35:19.382Z,29.87
2017-06-18T10:37:44.379Z,30.06
2017-06-18T10:40:09.336Z,29
2017-06-18T10:42:25.749Z,29.99
2017-06-18T10:44:50.695Z,30.35
2017-06-18T10:47:07.108Z,28.83
2017-06-18T10:49:32.019Z,28.15
2017-06-18T10:51:56.907Z,28.19
2017-06-18T10:54:21.786Z,28.87
2017-06-18T10:56:46.651Z,28.84
2017-06-18T10:59:03.015Z,28.83
2017-06-18T11:01:27.871Z,28.6
2017-06-18T11:03:44.219Z,29.62
2017-06-18T11:06:09.061Z,28.67
2017-06-18T11:08:25.383Z,28.34
2017-06-18T11:10:33.235Z,28.64
2017-06-18T11:12:58.020Z,27.9
2017-06-18T11:15:22.786Z,28.52
2017-06-18T11:17:47.570Z,28.57
2017-06-18T11:20:12.343Z,28.56
2017-06-18T11:22:28.697Z,28.86
2017-06-18T11:24:53.459Z,29.95
2017-06-18T11:27:18.232Z,28.35
2017-06-18T11:29:43.036Z,28.35
2017-06-18T11:32:07.830Z,29.03
2017-06-18T11:34:09.395Z,29.06
2017-06-18T11:36:34.195Z,28.92
2017-06-18T11:38:58.996Z,29.21
2017-06-18T11:41:23.751Z,28.93
2017-06-18T11:43:25.296Z,29.09
2017-06-18T11:45:50.123Z,29.06
2017-06-18T11:48:06.444Z,28.82
2017-06-18T11:50:31.211Z,28.01
2017-06-18T11:52:55.935Z,28.31
2017-06-18T11:55:12.205Z,28.16
2017-06-18T11:57:36.949Z,28.3
2017-06-18T12:00:01.657Z,28.31
2017-06-18T12:02:26.420Z,28.27
2017-06-18T12:04:42.641Z,28.5
2017-06-18T12:06:58.934Z,28.25
2017-06-18T12:09:23.686Z,28.6
2017-06-18T12:11:39.970Z,28.68
2017-06-18T12:14:04.708Z,28.55
2017-06-18T12:16:29.474Z,28.3
2017-06-18T12:18:45.726Z,28.4
2017-06-18T12:21:10.469Z,28.35
2017-06-18T12:23:35.212Z,28.78
2017-06-18T12:25:59.996Z,28.47
2017-06-18T12:28:24.747Z,28.6
2017-06-18T12:30:49.450Z,28.72
2017-06-18T12:33:14.177Z,28.34
2017-06-18T12:35:38.901Z,28.75
2017-06-18T12:38:03.563Z,28.68
2017-06-18T12:40:28.289Z,29
2017-06-18T12:42:29.823Z,29.05
2017-06-18T12:44:54.587Z,28.7
2017-06-18T12:47:19.337Z,28.41
2017-06-18T12:49:35.611Z,28.43
2017-06-18T12:51:51.859Z,28.56
2017-06-18T12:54:16.583Z,28.84
2017-06-18T12:56:41.326Z,29.07
2017-06-18T12:59:06.066Z,29.4
2017-06-18T13:01:16.195Z,29.09
2017-06-18T13:03:41.004Z,29.07
2017-06-18T13:05:57.287Z,29.35
2017-06-18T13:07:58.838Z,28.86
2017-06-18T13:10:06.695Z,28.37
2017-06-18T13:12:14.531Z,28.6
2017-06-18T13:14:39.263Z,28
2017-06-18T13:17:04.009Z,28.82
2017-06-18T13:19:20.295Z,29.03
2017-06-18T13:21:36.556Z,29.28
2017-06-18T13:24:01.338Z,29.25
2017-06-18T13:26:26.124Z,28.75
2017-06-18T13:28:50.899Z,28.8
2017-06-18T13:31:07.202Z,29.24
2017-06-18T13:33:23.490Z,29.03
2017-06-18T13:35:48.275Z,29.44
2017-06-18T13:38:12.990Z,29.87
2017-06-18T13:40:37.768Z,29.16
2017-06-18T13:43:02.540Z,29.35
2017-06-18T13:45:18.782Z,29.43
2017-06-18T13:47:43.528Z,29.3
2017-06-18T13:50:08.289Z,29.39
2017-06-18T13:52:19.195Z,29.49
2017-06-18T13:54:21.233Z,30.01
2017-06-18T13:56:46.035Z,30.13
2017-06-18T13:59:10.827Z,29.81
2017-06-18T14:01:35.647Z,29.1
2017-06-18T14:04:00.465Z,29.07
2017-06-18T14:06:25.244Z,28.83
2017-06-18T14:08:50.052Z,29.47
2017-06-18T14:11:14.836Z,28.89
2017-06-18T14:13:39.630Z,28.55
2017-06-18T14:16:04.405Z,28.86
2017-06-18T14:18:29.108Z,29.21
2017-06-18T14:20:45.397Z,29.47
2017-06-18T14:23:10.176Z,29.07
2017-06-18T14:25:34.949Z,29.09
2017-06-18T14:27:36.995Z,29.35
2017-06-18T14:30:01.803Z,29.46
2017-06-18T14:32:26.548Z,28.9
2017-06-18T14:34:51.346Z,29.4
2017-06-18T14:37:07.634Z,29.46
2017-06-18T14:39:32.408Z,29.28
2017-06-18T14:41:57.144Z,29.03
2017-06-18T14:44:13.451Z,29.13
2017-06-18T14:46:38.233Z,29.69
2017-06-18T14:48:54.525Z,29.49
2017-06-18T14:51:19.287Z,29.07
2017-06-18T14:53:44.081Z,28.86
2017-06-18T14:56:08.846Z,29.16
2017-06-18T14:58:33.626Z,29.15
2017-06-18T15:00:58.374Z,29.02
2017-06-18T15:03:23.081Z,29.13
2017-06-18T15:05:39.352Z,28.84
2017-06-18T15:08:04.085Z,28.55
2017-06-18T15:10:29.832Z,28.35
2017-06-18T15:12:54.623Z,28.8
2017-06-18T15:15:02.387Z,29.03
2017-06-18T15:17:27.140Z,29.16
2017-06-18T15:19:34.875Z,29.57
2017-06-18T15:21:51.144Z,29.39
2017-06-18T15:24:15.918Z,29.07
2017-06-18T15:26:40.634Z,29.1
2017-06-18T15:29:05.392Z,29.07
2017-06-18T15:31:30.132Z,29.27
2017-06-18T15:33:54.868Z,29.4
2017-06-18T15:36:19.609Z,29.12
2017-06-18T15:38:35.888Z,29.5
2017-06-18T15:41:00.638Z,29.24
2017-06-18T15:43:25.388Z,29
2017-06-18T15:45:50.074Z,29.3
2017-06-18T15:48:14.820Z,29.05
2017-06-18T15:49:59.403Z,29.13
2017-06-18T15:52:24.115Z,29.49
2017-06-18T15:54:48.912Z,29.16
2017-06-18T15:57:13.698Z,29.28
2017-06-18T15:59:38.499Z,29.18
2017-06-18T16:02:03.296Z,29.3
2017-06-18T16:04:28.059Z,29.28
2017-06-18T16:06:44.360Z,29.12
2017-06-18T16:09:09.129Z,28.86
2017-06-18T16:11:25.421Z,28.89
2017-06-18T16:13:01.272Z,28.9
2017-06-18T16:15:26.060Z,29.1
2017-06-18T16:17:50.801Z,29.16
2017-06-18T16:20:15.591Z,29.1
2017-06-18T16:22:40.393Z,28.94
2017-06-18T16:25:05.189Z,28.75
2017-06-18T16:27:29.988Z,28.8
2017-06-18T16:29:47.790Z,28.94
2017-06-18T16:32:12.128Z,29.34
2017-06-18T16:34:28.342Z,28.92
2017-06-18T16:36:30.370Z,29.12
2017-06-18T16:38:46.670Z,29.03
2017-06-18T16:41:02.970Z,29.13
2017-06-18T16:43:27.772Z,29.07
2017-06-18T16:45:44.067Z,28.57
2017-06-18T16:48:00.310Z,28.72
2017-06-18T16:50:25.078Z,28.83
2017-06-18T16:52:49.865Z,28.35
2017-06-18T16:55:14.580Z,28.56
2017-06-18T16:57:39.388Z,28.8
2017-06-18T17:00:04.081Z,28.53
2017-06-18T17:02:28.853Z,28.15
2017-06-18T17:04:53.655Z,28.38
2017-06-18T17:06:54.076Z,28.28
2017-06-18T17:09:18.878Z,28.3
2017-06-18T17:11:43.674Z,28.56
2017-06-18T17:14:08.369Z,28.46
2017-06-18T17:16:33.175Z,28.6
2017-06-18T17:18:57.972Z,28.82
2017-06-18T17:21:22.772Z,28.72
2017-06-18T17:23:47.467Z,28.78
2017-06-18T17:26:03.769Z,28.62
2017-06-18T17:28:20.066Z,28.49
2017-06-18T17:30:44.753Z,28.31
2017-06-18T17:33:00.950Z,28.41
2017-06-18T17:35:08.756Z,28.2
2017-06-18T17:37:33.457Z,28.2
2017-06-18T17:39:58.158Z,28.13
2017-06-18T17:42:22.849Z,27.85
2017-06-18T17:44:47.552Z,28.09
2017-06-18T17:47:12.239Z,28.27
2017-06-18T17:49:36.860Z,28.33
2017-06-18T17:52:01.632Z,28.2
2017-06-18T17:53:55.203Z,28.18
2017-06-18T17:56:05.785Z,28.3
2017-06-18T17:58:30.562Z,28.13
2017-06-18T18:00:55.216Z,28.22
2017-06-18T18:03:19.961Z,28.15
2017-06-18T18:05:21.987Z,28.1
2017-06-18T18:07:46.693Z,28
2017-06-18T18:10:02.917Z,28.01
2017-06-18T18:12:27.608Z,27.83
2017-06-18T18:14:43.907Z,27.93
2017-06-18T18:17:08.606Z,27.83
2017-06-18T18:19:33.304Z,27.82
2017-06-18T18:21:57.999Z,27.88
2017-06-18T18:24:22.651Z,27.44
2017-06-18T18:26:47.387Z,27.5
2017-06-18T18:29:12.092Z,27.72
2017-06-18T18:31:28.281Z,27.57
2017-06-18T18:33:52.983Z,27.61
2017-06-18T18:36:17.680Z,27.3
2017-06-18T18:38:42.276Z,27.68
2017-06-18T18:40:58.471Z,27.38
2017-06-18T18:43:23.061Z,27.41
2017-06-18T18:45:39.262Z,27.13
2017-06-18T18:48:03.856Z,27.43
2017-06-18T18:50:19.978Z,27.29
2017-06-18T18:52:30.571Z,27.1
2017-06-18T18:54:46.816Z,27.08
2017-06-18T18:57:03.014Z,27.07
2017-06-18T18:59:27.604Z,27
2017-06-18T19:01:52.302Z,26.93
2017-06-18T19:04:16.894Z,26.98
2017-06-18T19:06:41.486Z,26.83
2017-06-18T19:09:06.190Z,26.82
2017-06-18T19:11:30.788Z,26.89
2017-06-18T19:13:55.371Z,27.01
2017-06-18T19:16:20.065Z,26.86
2017-06-18T19:18:44.664Z,26.71
2017-06-18T19:21:09.186Z,26.82
2017-06-18T19:23:33.750Z,26.26
2017-06-18T19:25:49.847Z,26.44
2017-06-18T19:28:14.447Z,26.18
2017-06-18T19:30:38.967Z,26.19
2017-06-18T19:32:49.046Z,26.26
2017-06-18T19:35:13.681Z,26.07
2017-06-18T19:37:38.274Z,25.95
2017-06-18T19:40:02.771Z,25.71
2017-06-18T19:42:10.355Z,25.86
2017-06-18T19:46:10.565Z,25.66
2017-06-18T19:50:02.237Z,25.7
2017-06-18T19:54:03.542Z,25.59
2017-06-18T19:58:03.685Z,25.43
2017-06-18T20:00:05.741Z,25.37
2017-06-18T20:02:37.160Z,25.21
2017-06-18T20:04:47.183Z,25.24
2017-06-18T20:08:47.788Z,25
2017-06-18T20:11:12.256Z,25.03
2017-06-18T20:13:36.778Z,25.03
2017-06-18T20:16:01.544Z,24.75
2017-06-18T20:18:26.031Z,24.68
2017-06-18T20:20:36.060Z,24.71
2017-06-18T20:23:00.481Z,24.81
2017-06-18T20:25:24.856Z,24.65
2017-06-18T20:27:49.251Z,24.56
2017-06-18T20:30:13.649Z,24.34
2017-06-18T20:32:39.152Z,24.37
2017-06-18T20:35:03.652Z,24.34
2017-06-18T20:37:28.135Z,24.34
2017-06-18T20:39:52.454Z,24.26
2017-06-18T20:42:16.916Z,24.34
2017-06-18T20:44:32.909Z,24.44
2017-06-18T20:46:57.309Z,24.24
2017-06-18T20:48:59.250Z,24.13
2017-06-18T20:51:24.676Z,24.25
2017-06-18T20:53:49.067Z,24.14
2017-06-18T20:56:05.672Z,24.13
2017-06-18T20:58:30.055Z,24.09
2017-06-18T21:00:55.385Z,24.18
2017-06-18T21:03:19.860Z,24.01
2017-06-18T21:05:44.353Z,23.71
2017-06-18T21:08:09.257Z,23.82
2017-06-18T21:10:33.642Z,23.96
2017-06-18T21:12:58.028Z,23.92
2017-06-18T21:15:13.931Z,23.81
2017-06-18T21:17:38.226Z,23.82
2017-06-18T21:20:02.555Z,23.86
2017-06-18T21:22:26.993Z,23.92
2017-06-18T21:24:51.381Z,23.79
2017-06-18T21:27:07.273Z,23.67
2017-06-18T21:29:31.758Z,23.86
2017-06-18T21:31:33.750Z,23.77
2017-06-18T21:33:58.215Z,23.69
2017-06-18T21:36:22.820Z,23.7
2017-06-18T21:38:47.183Z,23.73
2017-06-18T21:41:11.581Z,23.79
2017-06-18T21:43:35.968Z,23.85
2017-06-18T21:45:51.866Z,23.71
2017-06-18T21:48:16.256Z,23.73
2017-06-18T21:50:40.538Z,23.81
2017-06-18T21:52:56.426Z,23.94
2017-06-18T21:55:12.221Z,23.89
2017-06-18T21:57:36.504Z,24
2017-06-18T21:59:38.431Z,23.95
2017-06-18T22:02:02.853Z,23.88
2017-06-18T22:04:27.142Z,23.84
2017-06-18T22:06:51.522Z,23.74
2017-06-18T22:09:07.427Z,23.49
2017-06-18T22:11:31.708Z,23.25
2017-06-18T22:13:56.097Z,23.32
2017-06-18T22:16:20.381Z,23.32
2017-06-18T22:18:36.269Z,23.45
2017-06-18T22:21:00.569Z,23.56
2017-06-18T22:23:02.500Z,23.51
2017-06-18T22:25:26.807Z,23.14
2017-06-18T22:27:51.095Z,23.4
2017-06-18T22:30:15.384Z,23.4
2017-06-18T22:32:39.671Z,23.52
2017-06-18T22:35:04.876Z,23.64
2017-06-18T22:37:29.171Z,23.71
2017-06-18T22:39:45.056Z,23.44
2017-06-18T22:41:46.975Z,23.33
2017-06-18T22:44:11.304Z,23.44
2017-06-18T22:46:13.195Z,23.55
2017-06-18T22:48:37.559Z,23.48
2017-06-18T22:51:01.841Z,23.54
2017-06-18T22:53:26.130Z,23.39
2017-06-18T22:55:51.439Z,23.18
2017-06-18T22:58:17.669Z,23.39
2017-06-18T23:00:42.982Z,23.39
2017-06-18T23:03:07.271Z,23.45
2017-06-18T23:05:31.560Z,23.33
2017-06-18T23:07:55.840Z,23.47
2017-06-18T23:10:20.128Z,23.25
2017-06-18T23:12:35.912Z,23.37
2017-06-18T23:15:01.227Z,23.4
2017-06-18T23:17:25.514Z,23.33
2017-06-18T23:19:49.802Z,23.36
2017-06-18T23:22:15.096Z,23.23
2017-06-18T23:24:41.346Z,23.23
2017-06-18T23:26:57.129Z,23.02
2017-06-18T23:29:22.440Z,23.17
2017-06-18T23:31:46.728Z,23.11
2017-06-18T23:34:12.039Z,22.89
2017-06-18T23:36:37.250Z,23.01
2017-06-18T23:39:01.446Z,22.8
2017-06-18T23:41:26.640Z,23.11
2017-06-18T23:43:50.834Z,23.13
2017-06-18T23:46:16.008Z,23.2
2017-06-18T23:48:31.716Z,23.23
2017-06-18T23:50:56.002Z,23.17
2017-06-18T23:53:11.789Z,23.23
2017-06-18T23:55:38.024Z,23.11
2017-06-18T23:58:02.308Z,23.1
